Relevés horaires Antwerpen / Deurne (Belgique)


Relevés horaires à Antwerpen / Deurne - Mardi 16 Mai 2017
Heure UTC1 Température [°C] Vent [km/h] Hum. [%] Pres.4 [hPa] Visi. [Km] Nébu. [octa] Préc.5 [mm] Cond.
2m. Res. Ros. Dir.2 Vit. Moy. Raf.3
23:00 18.8 18.8 13.4 N 1.9 1.9 3.7 71 1024.9(-0.4/3h) 45 0/8 -- --
22:00 19.2 19.2 12.9 N 1.9 3.7 5.6 67 1025.1(0.0/3h) 35 0/8 -- --
21:00 21.0 21.0 13.9 NNO 3.7 5.6 7.4 64 1025.3(0.0/3h) 30 3/8 -- --
20:00 22.0 22.0 13.9 N 3.7 3.7 5.6 60 1025.3(-0.2/3h) 30 4/8 -- --
19:00 24.8 24.8 11.8 SSO 1.9 5.6 7.4 44 1025.1(0.0/3h) 30 6/8 -- --
18:00 25.2 25.2 11.8 SO 5.6 11.1 18.5 43 1025.1(-0.2/3h) 30 6/8 0/12h
--
17:00 25.3 25.3 12.1 OSO 7.4 9.3 13.0 44 1025.1(-0.4/3h) 30 7/8 -- --
16:00 25.8 25.8 12.0 OSO 7.4 11.1 14.8 42 1025.2(-0.4/3h) 30 7/8 -- --
15:00 26.5 26.5 11.1 OSO 9.3 11.1 18.5 38 1025.3(-0.8/3h) 30 7/8 -- --
14:00 26.6 26.6 10.7 SO 9.3 11.1 16.7 37 1025.5(-1.0/3h) 30 5/8 -- --
13:00 26.3 26.3 10.7 S 5.6 11.1 18.5 38 1025.6(-1.2/3h) 30 2/8 -- --
12:00 26.4 26.4 11.6 SO 9.3 11.1 16.7 40 1026.1(-1.0/3h) 30 4/8 0/6h
--
11:00 25.3 25.3 11.2 SO 9.3 9.3 14.8 41 1026.5(-0.8/3h) 30 5/8 -- --
10:00 24.1 24.1 11.8 SSO 7.4 9.3 13.0 46 1026.9(-0.4/3h) 30 5/8 -- --
09:00 22.8 22.8 11.8 SSO 7.4 9.3 13.0 50 1027.1(0.2/3h) 30 6/8 -- --
08:00 22.1 22.1 12.0 SSO 7.4 9.3 13.0 53 1027.3(0.5/3h) 30 6/8 -- --
07:00 19.7 19.7 11.7 SSO 7.4 7.4 9.3 60 1027.3(0.6/3h) 30 7/8 -- --
06:00 18.1 18.1 11.6 S 5.6 5.6 9.3 66 1027(-0.2/3h) 30 7/8 0/12h
--
05:00 17.5 17.5 11.2 S 3.7 5.6 5.6 67 1026.8(-0.1/3h) 30 7/8 -- --
04:00 16.9 16.9 11.3 S 3.7 5.6 5.6 70 1026.7(-0.5/3h) 45 0/8 -- --
03:00 17.5 17.5 11.3 S 3.7 5.6 5.6 67 1026.8(-0.7/3h) 45 0/8 -- --
02:00 17.7 17.7 11.4 S 3.7 5.6 5.6 67 1026.9(-0.8/3h) 45 0/8 -- --
01:00 17.7 17.7 11.4 S 3.7 3.7 5.6 67 1027.2(-0.7/3h) 45 0/8 -- --
00:00 18.2 18.2 11.4 S 3.7 5.6 7.4 64 1027.5(-0.7/3h) 45 0/8 0/6h
0/24h
--

1 Coordinated Universal Time. Actuellement il est 03:00 locale et 02:00 UTC.

2 Le vent souffle depuis la direction indiquée vers la direction oposée.

3 Les rafales max. sont disponible 40 min après l'heure du relevé.

4 Pour les stations d'altitude (plus de 600m) le géopotentiel du niveau le plus proche de la pression obligatoire est indiqué.

5 Les stations disposant d'un diffuseur peuvent indiquer "trace". Cela signifie que des précipitations ont touchés le sol mais que la quantité est inférieure à 0.1 mm.

Récapitulatif de la journée
Température [°C] Vent [km/h] Ensoleillement4 [h] Precipitations totale5 [mm] Pression [Hpa]
Min1 Max.2 Moy.3 Max. Min Max.
16.9 27.4 7.4 18.5 0 h 0 min 0 1024.9 1027.5

1 Température minimale relevée entre 18:00 UTC la veille et 18:00 UTC le jour donné.

2 Température maximale relevée entre 06:00 UTC le jour donné et 06:00 UTC le lendemain.

3 Vent moyen de la journée basé sur les relevés horaires.

4 Ensoleillement en heures relevé entre 06:00 UTC la veille et 06:00 UTC le jour donné.

5 Précipitations totales tombées entre 06:00 UTC la jour donné et 06:00 UTC le lendemain.

Graphiques horaires